sensor_id;sensor_type;location;lat;lon;timestamp;temperature;humidity
82183;DHT22;71763;52.220;13.000;2023-11-19T00:00:06;5.60;63.50
82183;DHT22;71763;52.220;13.000;2023-11-19T00:02:38;5.60;63.50
82183;DHT22;71763;52.220;13.000;2023-11-19T00:05:04;5.60;63.50
82183;DHT22;71763;52.220;13.000;2023-11-19T00:07:31;5.60;63.40
82183;DHT22;71763;52.220;13.000;2023-11-19T00:09:57;5.60;63.40
82183;DHT22;71763;52.220;13.000;2023-11-19T00:12:23;5.60;63.50
82183;DHT22;71763;52.220;13.000;2023-11-19T00:14:49;5.60;63.50
82183;DHT22;71763;52.220;13.000;2023-11-19T00:17:15;5.70;63.50
82183;DHT22;71763;52.220;13.000;2023-11-19T00:19:41;5.70;63.50
82183;DHT22;71763;52.220;13.000;2023-11-19T00:22:07;5.70;63.40
82183;DHT22;71763;52.220;13.000;2023-11-19T00:24:33;5.70;63.20
82183;DHT22;71763;52.220;13.000;2023-11-19T00:26:58;5.80;63.30
82183;DHT22;71763;52.220;13.000;2023-11-19T00:29:24;5.80;63.30
82183;DHT22;71763;52.220;13.000;2023-11-19T00:31:50;5.80;63.30
82183;DHT22;71763;52.220;13.000;2023-11-19T00:34:15;5.80;63.20
82183;DHT22;71763;52.220;13.000;2023-11-19T00:36:41;5.90;63.30
82183;DHT22;71763;52.220;13.000;2023-11-19T00:39:06;5.90;63.20
82183;DHT22;71763;52.220;13.000;2023-11-19T00:41:32;5.90;63.20
82183;DHT22;71763;52.220;13.000;2023-11-19T00:43:57;6.00;63.30
82183;DHT22;71763;52.220;13.000;2023-11-19T00:46:23;6.00;63.10
82183;DHT22;71763;52.220;13.000;2023-11-19T00:48:48;6.00;63.10
82183;DHT22;71763;52.220;13.000;2023-11-19T00:51:14;6.00;63.10
82183;DHT22;71763;52.220;13.000;2023-11-19T00:53:40;6.00;63.00
82183;DHT22;71763;52.220;13.000;2023-11-19T00:56:05;6.00;63.00
82183;DHT22;71763;52.220;13.000;2023-11-19T00:58:31;6.10;63.10
82183;DHT22;71763;52.220;13.000;2023-11-19T01:00:57;6.10;63.10
82183;DHT22;71763;52.220;13.000;2023-11-19T01:03:22;6.10;63.10
82183;DHT22;71763;52.220;13.000;2023-11-19T01:05:48;6.10;63.10
82183;DHT22;71763;52.220;13.000;2023-11-19T01:08:14;6.10;63.00
82183;DHT22;71763;52.220;13.000;2023-11-19T01:10:40;6.10;63.00
82183;DHT22;71763;52.220;13.000;2023-11-19T01:13:05;6.20;63.10
82183;DHT22;71763;52.220;13.000;2023-11-19T01:15:32;6.20;63.10
82183;DHT22;71763;52.220;13.000;2023-11-19T01:17:57;6.20;63.10
82183;DHT22;71763;52.220;13.000;2023-11-19T01:20:22;6.20;63.10
82183;DHT22;71763;52.220;13.000;2023-11-19T01:22:49;6.20;63.10
82183;DHT22;71763;52.220;13.000;2023-11-19T01:25:15;6.20;63.10
82183;DHT22;71763;52.220;13.000;2023-11-19T01:27:40;6.20;63.10
82183;DHT22;71763;52.220;13.000;2023-11-19T01:30:06;6.20;63.10
82183;DHT22;71763;52.220;13.000;2023-11-19T01:32:35;6.30;63.10
82183;DHT22;71763;52.220;13.000;2023-11-19T01:35:02;6.30;63.20
82183;DHT22;71763;52.220;13.000;2023-11-19T01:37:27;6.30;63.00
82183;DHT22;71763;52.220;13.000;2023-11-19T01:39:53;6.30;63.00
82183;DHT22;71763;52.220;13.000;2023-11-19T01:42:18;6.30;63.00
82183;DHT22;71763;52.220;13.000;2023-11-19T01:44:58;6.40;63.10
82183;DHT22;71763;52.220;13.000;2023-11-19T01:47:23;6.30;63.00
82183;DHT22;71763;52.220;13.000;2023-11-19T01:49:50;6.30;63.00
82183;DHT22;71763;52.220;13.000;2023-11-19T01:52:16;6.40;63.10
82183;DHT22;71763;52.220;13.000;2023-11-19T01:54:42;6.40;63.10
82183;DHT22;71763;52.220;13.000;2023-11-19T01:57:08;6.30;63.00
82183;DHT22;71763;52.220;13.000;2023-11-19T01:59:34;6.40;63.10
82183;DHT22;71763;52.220;13.000;2023-11-19T02:02:00;6.40;63.10
82183;DHT22;71763;52.220;13.000;2023-11-19T02:04:26;6.40;63.10
82183;DHT22;71763;52.220;13.000;2023-11-19T02:06:54;6.40;63.10
82183;DHT22;71763;52.220;13.000;2023-11-19T02:09:21;6.40;63.10
82183;DHT22;71763;52.220;13.000;2023-11-19T02:11:47;6.30;63.00
82183;DHT22;71763;52.220;13.000;2023-11-19T02:14:17;6.30;63.00
82183;DHT22;71763;52.220;13.000;2023-11-19T02:16:43;6.30;63.00
82183;DHT22;71763;52.220;13.000;2023-11-19T02:19:09;6.30;63.10
82183;DHT22;71763;52.220;13.000;2023-11-19T02:21:36;6.30;63.20
82183;DHT22;71763;52.220;13.000;2023-11-19T02:24:06;6.30;63.20
82183;DHT22;71763;52.220;13.000;2023-11-19T02:29:21;6.30;63.40
82183;DHT22;71763;52.220;13.000;2023-11-19T02:31:47;6.20;63.40
82183;DHT22;71763;52.220;13.000;2023-11-19T02:34:13;6.20;63.50
82183;DHT22;71763;52.220;13.000;2023-11-19T02:36:39;6.20;63.60
82183;DHT22;71763;52.220;13.000;2023-11-19T02:39:07;6.00;63.50
82183;DHT22;71763;52.220;13.000;2023-11-19T02:41:36;6.10;63.60
82183;DHT22;71763;52.220;13.000;2023-11-19T02:44:02;6.10;63.60
82183;DHT22;71763;52.220;13.000;2023-11-19T02:46:28;6.10;63.70
82183;DHT22;71763;52.220;13.000;2023-11-19T02:48:54;6.10;63.70
82183;DHT22;71763;52.220;13.000;2023-11-19T02:51:19;6.10;63.80
82183;DHT22;71763;52.220;13.000;2023-11-19T02:53:45;6.10;63.70
82183;DHT22;71763;52.220;13.000;2023-11-19T02:56:13;6.10;63.70
82183;DHT22;71763;52.220;13.000;2023-11-19T02:58:50;6.10;63.80
82183;DHT22;71763;52.220;13.000;2023-11-19T03:01:22;6.10;63.80
82183;DHT22;71763;52.220;13.000;2023-11-19T03:03:56;6.10;64.00
82183;DHT22;71763;52.220;13.000;2023-11-19T03:06:23;6.00;64.00
82183;DHT22;71763;52.220;13.000;2023-11-19T03:08:49;5.90;64.10
82183;DHT22;71763;52.220;13.000;2023-11-19T03:11:15;5.90;64.30
82183;DHT22;71763;52.220;13.000;2023-11-19T03:13:40;5.80;64.40
82183;DHT22;71763;52.220;13.000;2023-11-19T03:16:06;5.80;64.60
82183;DHT22;71763;52.220;13.000;2023-11-19T03:18:32;5.80;64.70
82183;DHT22;71763;52.220;13.000;2023-11-19T03:20:58;5.80;64.80
82183;DHT22;71763;52.220;13.000;2023-11-19T03:23:24;5.70;64.70
82183;DHT22;71763;52.220;13.000;2023-11-19T03:25:50;5.80;64.90
82183;DHT22;71763;52.220;13.000;2023-11-19T03:28:16;5.70;64.80
82183;DHT22;71763;52.220;13.000;2023-11-19T03:30:42;5.70;64.90
82183;DHT22;71763;52.220;13.000;2023-11-19T03:33:07;5.70;64.90
82183;DHT22;71763;52.220;13.000;2023-11-19T03:35:33;5.70;65.00
82183;DHT22;71763;52.220;13.000;2023-11-19T03:37:58;5.70;65.00
82183;DHT22;71763;52.220;13.000;2023-11-19T03:40:24;5.70;65.00
82183;DHT22;71763;52.220;13.000;2023-11-19T03:42:50;5.70;65.10
82183;DHT22;71763;52.220;13.000;2023-11-19T03:45:16;5.70;65.00
82183;DHT22;71763;52.220;13.000;2023-11-19T03:47:42;5.70;65.00
82183;DHT22;71763;52.220;13.000;2023-11-19T03:50:07;5.70;65.20
82183;DHT22;71763;52.220;13.000;2023-11-19T03:52:34;5.70;65.20
82183;DHT22;71763;52.220;13.000;2023-11-19T03:54:59;5.70;65.20
82183;DHT22;71763;52.220;13.000;2023-11-19T03:57:26;5.70;65.20
82183;DHT22;71763;52.220;13.000;2023-11-19T03:59:52;5.70;65.30
82183;DHT22;71763;52.220;13.000;2023-11-19T04:02:17;5.70;65.30
82183;DHT22;71763;52.220;13.000;2023-11-19T04:04:43;5.70;65.40
82183;DHT22;71763;52.220;13.000;2023-11-19T04:07:08;5.70;65.40
82183;DHT22;71763;52.220;13.000;2023-11-19T04:09:34;5.70;65.40
82183;DHT22;71763;52.220;13.000;2023-11-19T04:12:01;5.70;65.40
82183;DHT22;71763;52.220;13.000;2023-11-19T04:14:27;5.70;65.40
82183;DHT22;71763;52.220;13.000;2023-11-19T04:16:53;5.70;65.40
82183;DHT22;71763;52.220;13.000;2023-11-19T04:19:19;5.70;65.40
82183;DHT22;71763;52.220;13.000;2023-11-19T04:21:45;5.70;65.40
82183;DHT22;71763;52.220;13.000;2023-11-19T04:24:11;5.70;65.40
82183;DHT22;71763;52.220;13.000;2023-11-19T04:26:42;5.70;65.50
82183;DHT22;71763;52.220;13.000;2023-11-19T04:29:15;5.70;65.50
82183;DHT22;71763;52.220;13.000;2023-11-19T04:31:45;5.70;65.50
82183;DHT22;71763;52.220;13.000;2023-11-19T04:34:11;5.70;65.60
82183;DHT22;71763;52.220;13.000;2023-11-19T04:36:37;5.80;65.70
82183;DHT22;71763;52.220;13.000;2023-11-19T04:39:03;5.70;65.70
82183;DHT22;71763;52.220;13.000;2023-11-19T04:41:51;5.80;65.80
82183;DHT22;71763;52.220;13.000;2023-11-19T04:44:20;5.70;65.70
82183;DHT22;71763;52.220;13.000;2023-11-19T04:46:46;5.70;65.80
82183;DHT22;71763;52.220;13.000;2023-11-19T04:49:12;5.70;65.80
82183;DHT22;71763;52.220;13.000;2023-11-19T04:51:40;5.70;65.90
82183;DHT22;71763;52.220;13.000;2023-11-19T04:54:06;5.70;65.90
82183;DHT22;71763;52.220;13.000;2023-11-19T04:56:34;5.80;66.00
82183;DHT22;71763;52.220;13.000;2023-11-19T04:58:59;5.80;66.00
82183;DHT22;71763;52.220;13.000;2023-11-19T05:01:24;5.80;66.80
82183;DHT22;71763;52.220;13.000;2023-11-19T05:03:50;5.80;66.20
82183;DHT22;71763;52.220;13.000;2023-11-19T05:06:16;5.80;66.10
82183;DHT22;71763;52.220;13.000;2023-11-19T05:08:41;5.80;66.20
82183;DHT22;71763;52.220;13.000;2023-11-19T05:11:07;5.80;66.20
82183;DHT22;71763;52.220;13.000;2023-11-19T05:13:32;5.80;66.10
82183;DHT22;71763;52.220;13.000;2023-11-19T05:15:58;5.90;66.20
82183;DHT22;71763;52.220;13.000;2023-11-19T05:18:23;5.90;66.20
82183;DHT22;71763;52.220;13.000;2023-11-19T05:20:49;5.90;66.20
82183;DHT22;71763;52.220;13.000;2023-11-19T05:23:14;6.00;66.20
82183;DHT22;71763;52.220;13.000;2023-11-19T05:25:40;6.00;66.40
82183;DHT22;71763;52.220;13.000;2023-11-19T05:28:05;6.00;66.30
82183;DHT22;71763;52.220;13.000;2023-11-19T05:30:31;6.00;66.30
82183;DHT22;71763;52.220;13.000;2023-11-19T05:32:56;6.00;66.30
82183;DHT22;71763;52.220;13.000;2023-11-19T05:35:22;6.00;66.40
82183;DHT22;71763;52.220;13.000;2023-11-19T05:37:47;6.10;66.50
82183;DHT22;71763;52.220;13.000;2023-11-19T05:40:13;6.10;66.50
82183;DHT22;71763;52.220;13.000;2023-11-19T05:42:41;6.10;66.60
82183;DHT22;71763;52.220;13.000;2023-11-19T05:45:08;6.10;66.70
82183;DHT22;71763;52.220;13.000;2023-11-19T05:47:34;6.10;66.70
82183;DHT22;71763;52.220;13.000;2023-11-19T05:49:59;6.10;66.70
82183;DHT22;71763;52.220;13.000;2023-11-19T05:52:25;6.10;66.70
82183;DHT22;71763;52.220;13.000;2023-11-19T05:54:50;6.20;66.80
82183;DHT22;71763;52.220;13.000;2023-11-19T05:57:19;6.20;66.80
82183;DHT22;71763;52.220;13.000;2023-11-19T05:59:49;6.20;66.80
82183;DHT22;71763;52.220;13.000;2023-11-19T06:02:15;6.20;66.90
82183;DHT22;71763;52.220;13.000;2023-11-19T06:04:40;6.20;66.90
82183;DHT22;71763;52.220;13.000;2023-11-19T06:07:08;6.20;66.90
82183;DHT22;71763;52.220;13.000;2023-11-19T06:09:33;6.20;66.90
82183;DHT22;71763;52.220;13.000;2023-11-19T06:11:59;6.10;67.00
82183;DHT22;71763;52.220;13.000;2023-11-19T06:14:27;6.00;66.90
82183;DHT22;71763;52.220;13.000;2023-11-19T06:16:52;6.10;67.10
82183;DHT22;71763;52.220;13.000;2023-11-19T06:19:18;6.20;67.10
82183;DHT22;71763;52.220;13.000;2023-11-19T06:21:43;6.20;67.10
82183;DHT22;71763;52.220;13.000;2023-11-19T06:24:09;6.20;67.00
82183;DHT22;71763;52.220;13.000;2023-11-19T06:26:34;6.20;67.00
82183;DHT22;71763;52.220;13.000;2023-11-19T06:29:00;6.20;67.00
82183;DHT22;71763;52.220;13.000;2023-11-19T06:31:26;6.20;67.00
82183;DHT22;71763;52.220;13.000;2023-11-19T06:33:51;6.20;67.70
82183;DHT22;71763;52.220;13.000;2023-11-19T06:36:17;6.20;67.00
82183;DHT22;71763;52.220;13.000;2023-11-19T06:38:43;6.20;67.00
82183;DHT22;71763;52.220;13.000;2023-11-19T06:41:09;6.30;67.00
82183;DHT22;71763;52.220;13.000;2023-11-19T06:43:35;6.30;67.00
82183;DHT22;71763;52.220;13.000;2023-11-19T06:46:01;6.40;67.80
82183;DHT22;71763;52.220;13.000;2023-11-19T06:48:27;6.30;67.00
82183;DHT22;71763;52.220;13.000;2023-11-19T06:50:52;6.40;67.00
82183;DHT22;71763;52.220;13.000;2023-11-19T06:53:19;6.40;66.90
82183;DHT22;71763;52.220;13.000;2023-11-19T06:55:44;6.50;67.00
82183;DHT22;71763;52.220;13.000;2023-11-19T06:58:10;6.50;66.90
82183;DHT22;71763;52.220;13.000;2023-11-19T07:00:35;6.50;66.90
82183;DHT22;71763;52.220;13.000;2023-11-19T07:03:01;6.60;67.00
82183;DHT22;71763;52.220;13.000;2023-11-19T07:05:27;6.60;67.00
82183;DHT22;71763;52.220;13.000;2023-11-19T07:07:53;6.70;67.00
82183;DHT22;71763;52.220;13.000;2023-11-19T07:10:20;6.70;67.00
82183;DHT22;71763;52.220;13.000;2023-11-19T07:12:45;6.70;67.00
82183;DHT22;71763;52.220;13.000;2023-11-19T07:15:11;6.80;67.00
82183;DHT22;71763;52.220;13.000;2023-11-19T07:17:38;6.80;66.90
82183;DHT22;71763;52.220;13.000;2023-11-19T07:20:05;6.90;66.90
82183;DHT22;71763;52.220;13.000;2023-11-19T07:22:31;6.90;67.00
82183;DHT22;71763;52.220;13.000;2023-11-19T07:24:57;7.00;67.00
82183;DHT22;71763;52.220;13.000;2023-11-19T07:27:22;7.00;67.00
82183;DHT22;71763;52.220;13.000;2023-11-19T07:29:49;7.10;67.10
82183;DHT22;71763;52.220;13.000;2023-11-19T07:32:15;7.10;67.00
82183;DHT22;71763;52.220;13.000;2023-11-19T07:34:40;7.20;67.10
82183;DHT22;71763;52.220;13.000;2023-11-19T07:37:05;7.20;67.10
82183;DHT22;71763;52.220;13.000;2023-11-19T07:39:31;7.30;67.30
82183;DHT22;71763;52.220;13.000;2023-11-19T07:41:57;7.30;67.10
82183;DHT22;71763;52.220;13.000;2023-11-19T07:44:22;7.30;67.20
82183;DHT22;71763;52.220;13.000;2023-11-19T07:46:48;7.40;67.10
82183;DHT22;71763;52.220;13.000;2023-11-19T07:49:13;7.40;67.00
82183;DHT22;71763;52.220;13.000;2023-11-19T07:51:39;7.50;67.10
82183;DHT22;71763;52.220;13.000;2023-11-19T07:54:05;7.50;67.10
82183;DHT22;71763;52.220;13.000;2023-11-19T07:56:33;7.60;67.00
82183;DHT22;71763;52.220;13.000;2023-11-19T07:58:59;7.60;67.00
82183;DHT22;71763;52.220;13.000;2023-11-19T08:01:25;7.70;67.10
82183;DHT22;71763;52.220;13.000;2023-11-19T08:03:50;7.70;67.00
82183;DHT22;71763;52.220;13.000;2023-11-19T08:06:16;7.80;66.90
82183;DHT22;71763;52.220;13.000;2023-11-19T08:08:41;7.90;66.90
82183;DHT22;71763;52.220;13.000;2023-11-19T08:11:07;8.00;66.80
82183;DHT22;71763;52.220;13.000;2023-11-19T08:13:32;8.10;66.80
82183;DHT22;71763;52.220;13.000;2023-11-19T08:15:58;8.10;66.70
82183;DHT22;71763;52.220;13.000;2023-11-19T08:18:24;8.20;67.40
82183;DHT22;71763;52.220;13.000;2023-11-19T08:20:50;8.30;66.70
82183;DHT22;71763;52.220;13.000;2023-11-19T08:23:19;8.30;66.60
82183;DHT22;71763;52.220;13.000;2023-11-19T08:25:44;8.40;66.70
82183;DHT22;71763;52.220;13.000;2023-11-19T08:28:10;8.50;66.80
82183;DHT22;71763;52.220;13.000;2023-11-19T08:30:35;8.60;66.70
82183;DHT22;71763;52.220;13.000;2023-11-19T08:33:01;8.80;66.50
82183;DHT22;71763;52.220;13.000;2023-11-19T08:35:28;8.90;66.20
82183;DHT22;71763;52.220;13.000;2023-11-19T08:37:54;8.90;66.20
82183;DHT22;71763;52.220;13.000;2023-11-19T08:40:19;9.00;66.30
82183;DHT22;71763;52.220;13.000;2023-11-19T08:42:45;9.00;66.40
82183;DHT22;71763;52.220;13.000;2023-11-19T08:45:11;9.00;66.60
82183;DHT22;71763;52.220;13.000;2023-11-19T08:47:37;9.00;66.80
82183;DHT22;71763;52.220;13.000;2023-11-19T08:50:02;9.00;66.90
82183;DHT22;71763;52.220;13.000;2023-11-19T08:52:30;9.10;67.00
82183;DHT22;71763;52.220;13.000;2023-11-19T08:54:55;9.10;67.10
82183;DHT22;71763;52.220;13.000;2023-11-19T08:57:21;9.20;67.20
82183;DHT22;71763;52.220;13.000;2023-11-19T08:59:46;9.30;67.20
82183;DHT22;71763;52.220;13.000;2023-11-19T09:02:12;9.40;67.00
82183;DHT22;71763;52.220;13.000;2023-11-19T09:04:37;9.70;66.70
82183;DHT22;71763;52.220;13.000;2023-11-19T09:07:03;10.30;64.10
82183;DHT22;71763;52.220;13.000;2023-11-19T09:09:29;10.50;63.50
82183;DHT22;71763;52.220;13.000;2023-11-19T09:11:55;10.30;63.20
82183;DHT22;71763;52.220;13.000;2023-11-19T09:14:21;10.10;64.40
82183;DHT22;71763;52.220;13.000;2023-11-19T09:16:51;10.00;65.20
82183;DHT22;71763;52.220;13.000;2023-11-19T09:19:16;10.10;65.50
82183;DHT22;71763;52.220;13.000;2023-11-19T09:21:43;10.30;65.30
82183;DHT22;71763;52.220;13.000;2023-11-19T09:24:08;10.70;63.90
82183;DHT22;71763;52.220;13.000;2023-11-19T09:26:33;10.70;63.70
82183;DHT22;71763;52.220;13.000;2023-11-19T09:29:01;10.80;63.80
82183;DHT22;71763;52.220;13.000;2023-11-19T09:31:27;10.60;64.40
82183;DHT22;71763;52.220;13.000;2023-11-19T09:33:52;10.50;65.00
82183;DHT22;71763;52.220;13.000;2023-11-19T09:36:18;10.50;65.40
82183;DHT22;71763;52.220;13.000;2023-11-19T09:38:44;10.80;65.40
82183;DHT22;71763;52.220;13.000;2023-11-19T09:41:10;10.90;64.70
82183;DHT22;71763;52.220;13.000;2023-11-19T09:43:42;11.10;64.80
82183;DHT22;71763;52.220;13.000;2023-11-19T09:46:13;11.50;63.80
82183;DHT22;71763;52.220;13.000;2023-11-19T09:48:39;11.50;63.20
82183;DHT22;71763;52.220;13.000;2023-11-19T09:51:09;11.40;64.30
82183;DHT22;71763;52.220;13.000;2023-11-19T09:53:36;11.20;64.10
82183;DHT22;71763;52.220;13.000;2023-11-19T09:56:05;11.10;65.20
82183;DHT22;71763;52.220;13.000;2023-11-19T09:58:32;11.00;65.60
82183;DHT22;71763;52.220;13.000;2023-11-19T10:00:58;10.90;65.80
82183;DHT22;71763;52.220;13.000;2023-11-19T10:03:26;10.90;65.90
82183;DHT22;71763;52.220;13.000;2023-11-19T10:05:53;11.00;66.20
82183;DHT22;71763;52.220;13.000;2023-11-19T10:08:19;10.90;66.10
82183;DHT22;71763;52.220;13.000;2023-11-19T10:10:44;11.00;66.20
82183;DHT22;71763;52.220;13.000;2023-11-19T10:13:10;11.00;66.20
82183;DHT22;71763;52.220;13.000;2023-11-19T10:15:37;11.00;66.20
82183;DHT22;71763;52.220;13.000;2023-11-19T10:18:03;11.00;66.20
82183;DHT22;71763;52.220;13.000;2023-11-19T10:20:41;11.10;66.30
82183;DHT22;71763;52.220;13.000;2023-11-19T10:23:07;11.10;66.20
82183;DHT22;71763;52.220;13.000;2023-11-19T10:25:33;11.20;66.30
82183;DHT22;71763;52.220;13.000;2023-11-19T10:27:59;11.10;66.20
82183;DHT22;71763;52.220;13.000;2023-11-19T10:30:27;11.20;66.40
82183;DHT22;71763;52.220;13.000;2023-11-19T10:33:10;11.30;66.20
82183;DHT22;71763;52.220;13.000;2023-11-19T10:35:54;11.50;66.00
82183;DHT22;71763;52.220;13.000;2023-11-19T10:38:21;11.70;64.60
82183;DHT22;71763;52.220;13.000;2023-11-19T10:40:51;11.80;64.70
82183;DHT22;71763;52.220;13.000;2023-11-19T10:43:17;11.90;64.80
82183;DHT22;71763;52.220;13.000;2023-11-19T10:45:43;12.10;65.00
82183;DHT22;71763;52.220;13.000;2023-11-19T10:48:09;12.10;65.00
82183;DHT22;71763;52.220;13.000;2023-11-19T10:50:39;12.10;65.00
82183;DHT22;71763;52.220;13.000;2023-11-19T10:53:07;12.00;64.90
82183;DHT22;71763;52.220;13.000;2023-11-19T10:55:35;12.00;64.90
82183;DHT22;71763;52.220;13.000;2023-11-19T10:58:02;12.00;65.10
82183;DHT22;71763;52.220;13.000;2023-11-19T11:00:29;12.00;65.20
82183;DHT22;71763;52.220;13.000;2023-11-19T11:03:02;12.10;65.00
82183;DHT22;71763;52.220;13.000;2023-11-19T11:05:32;12.30;65.20
82183;DHT22;71763;52.220;13.000;2023-11-19T11:08:00;12.30;65.20
82183;DHT22;71763;52.220;13.000;2023-11-19T11:10:26;12.50;65.40
82183;DHT22;71763;52.220;13.000;2023-11-19T11:12:52;12.60;65.50
82183;DHT22;71763;52.220;13.000;2023-11-19T11:15:26;12.80;65.20
82183;DHT22;71763;52.220;13.000;2023-11-19T11:17:55;12.90;64.60
82183;DHT22;71763;52.220;13.000;2023-11-19T11:20:22;13.00;64.60
82183;DHT22;71763;52.220;13.000;2023-11-19T11:28:48;13.00;64.90
82183;DHT22;71763;52.220;13.000;2023-11-19T11:31:31;13.10;65.00
82183;DHT22;71763;52.220;13.000;2023-11-19T11:39:34;13.60;64.00
82183;DHT22;71763;52.220;13.000;2023-11-19T11:47:36;13.40;64.60
82183;DHT22;71763;52.220;13.000;2023-11-19T11:50:14;13.40;65.00
82183;DHT22;71763;52.220;13.000;2023-11-19T11:55:29;13.20;65.40
82183;DHT22;71763;52.220;13.000;2023-11-19T11:57:59;13.20;65.50
82183;DHT22;71763;52.220;13.000;2023-11-19T12:00:38;13.20;65.50
82183;DHT22;71763;52.220;13.000;2023-11-19T12:03:05;13.20;65.40
82183;DHT22;71763;52.220;13.000;2023-11-19T12:05:32;13.20;65.60
82183;DHT22;71763;52.220;13.000;2023-11-19T12:08:04;13.20;65.50
82183;DHT22;71763;52.220;13.000;2023-11-19T12:10:34;13.20;65.50
82183;DHT22;71763;52.220;13.000;2023-11-19T12:13:06;13.20;65.40
82183;DHT22;71763;52.220;13.000;2023-11-19T12:15:32;13.20;65.40
82183;DHT22;71763;52.220;13.000;2023-11-19T12:17:58;13.10;65.40
82183;DHT22;71763;52.220;13.000;2023-11-19T12:20:25;13.10;65.30
82183;DHT22;71763;52.220;13.000;2023-11-19T12:22:52;13.10;65.30
82183;DHT22;71763;52.220;13.000;2023-11-19T12:25:18;13.10;65.40
82183;DHT22;71763;52.220;13.000;2023-11-19T12:27:47;13.10;65.50
82183;DHT22;71763;52.220;13.000;2023-11-19T12:30:23;13.00;65.40
82183;DHT22;71763;52.220;13.000;2023-11-19T12:32:50;13.00;65.40
82183;DHT22;71763;52.220;13.000;2023-11-19T12:35:16;13.10;65.50
82183;DHT22;71763;52.220;13.000;2023-11-19T12:37:51;13.00;65.20
82183;DHT22;71763;52.220;13.000;2023-11-19T12:40:22;13.10;65.30
82183;DHT22;71763;52.220;13.000;2023-11-19T12:42:49;13.10;65.20
82183;DHT22;71763;52.220;13.000;2023-11-19T12:45:15;13.10;65.10
82183;DHT22;71763;52.220;13.000;2023-11-19T12:47:45;13.10;65.00
82183;DHT22;71763;52.220;13.000;2023-11-19T12:50:13;13.10;65.00
82183;DHT22;71763;52.220;13.000;2023-11-19T12:52:39;13.00;65.10
82183;DHT22;71763;52.220;13.000;2023-11-19T12:55:23;13.00;65.10
82183;DHT22;71763;52.220;13.000;2023-11-19T12:57:49;13.00;65.10
82183;DHT22;71763;52.220;13.000;2023-11-19T13:00:19;13.00;64.90
82183;DHT22;71763;52.220;13.000;2023-11-19T13:02:55;13.10;64.70
82183;DHT22;71763;52.220;13.000;2023-11-19T13:05:22;13.20;64.40
82183;DHT22;71763;52.220;13.000;2023-11-19T13:07:47;13.30;64.20
82183;DHT22;71763;52.220;13.000;2023-11-19T13:10:14;13.30;64.10
82183;DHT22;71763;52.220;13.000;2023-11-19T13:12:39;13.30;63.90
82183;DHT22;71763;52.220;13.000;2023-11-19T13:15:05;13.30;64.00
82183;DHT22;71763;52.220;13.000;2023-11-19T13:17:31;13.20;63.90
82183;DHT22;71763;52.220;13.000;2023-11-19T13:19:56;13.20;64.10
82183;DHT22;71763;52.220;13.000;2023-11-19T13:22:22;13.20;64.20
82183;DHT22;71763;52.220;13.000;2023-11-19T13:24:48;13.20;64.20
82183;DHT22;71763;52.220;13.000;2023-11-19T13:27:13;13.10;64.20
82183;DHT22;71763;52.220;13.000;2023-11-19T13:29:39;13.00;64.30
82183;DHT22;71763;52.220;13.000;2023-11-19T13:32:04;12.90;64.40
82183;DHT22;71763;52.220;13.000;2023-11-19T13:34:31;12.90;64.50
82183;DHT22;71763;52.220;13.000;2023-11-19T13:36:56;12.80;64.40
82183;DHT22;71763;52.220;13.000;2023-11-19T13:39:22;12.90;64.50
82183;DHT22;71763;52.220;13.000;2023-11-19T13:41:49;12.90;64.40
82183;DHT22;71763;52.220;13.000;2023-11-19T13:44:16;12.90;64.30
82183;DHT22;71763;52.220;13.000;2023-11-19T13:46:44;13.00;64.30
82183;DHT22;71763;52.220;13.000;2023-11-19T13:49:09;12.90;64.00
82183;DHT22;71763;52.220;13.000;2023-11-19T13:51:35;12.90;64.00
82183;DHT22;71763;52.220;13.000;2023-11-19T13:54:01;13.00;64.70
82183;DHT22;71763;52.220;13.000;2023-11-19T13:56:26;13.00;63.90
82183;DHT22;71763;52.220;13.000;2023-11-19T13:58:53;13.00;63.90
82183;DHT22;71763;52.220;13.000;2023-11-19T14:01:19;13.00;63.90
82183;DHT22;71763;52.220;13.000;2023-11-19T14:03:44;13.00;63.90
82183;DHT22;71763;52.220;13.000;2023-11-19T14:06:12;13.00;63.90
82183;DHT22;71763;52.220;13.000;2023-11-19T14:08:38;12.90;63.80
82183;DHT22;71763;52.220;13.000;2023-11-19T14:11:03;12.90;63.80
82183;DHT22;71763;52.220;13.000;2023-11-19T14:13:30;12.90;63.90
82183;DHT22;71763;52.220;13.000;2023-11-19T14:15:55;12.90;63.90
82183;DHT22;71763;52.220;13.000;2023-11-19T14:18:21;12.90;63.90
82183;DHT22;71763;52.220;13.000;2023-11-19T14:20:46;12.80;63.80
82183;DHT22;71763;52.220;13.000;2023-11-19T14:23:12;12.80;63.90
82183;DHT22;71763;52.220;13.000;2023-11-19T14:25:37;12.80;63.90
82183;DHT22;71763;52.220;13.000;2023-11-19T14:28:03;12.70;63.80
82183;DHT22;71763;52.220;13.000;2023-11-19T14:30:29;12.70;63.80
82183;DHT22;71763;52.220;13.000;2023-11-19T14:32:54;12.70;63.80
82183;DHT22;71763;52.220;13.000;2023-11-19T14:35:20;12.70;63.80
82183;DHT22;71763;52.220;13.000;2023-11-19T14:37:45;12.70;63.90
82183;DHT22;71763;52.220;13.000;2023-11-19T14:40:11;12.60;63.70
82183;DHT22;71763;52.220;13.000;2023-11-19T14:42:37;12.60;63.80
82183;DHT22;71763;52.220;13.000;2023-11-19T14:45:04;12.60;63.70
82183;DHT22;71763;52.220;13.000;2023-11-19T14:47:30;12.60;63.70
82183;DHT22;71763;52.220;13.000;2023-11-19T14:49:56;12.60;63.80
82183;DHT22;71763;52.220;13.000;2023-11-19T14:52:21;12.60;63.80
82183;DHT22;71763;52.220;13.000;2023-11-19T14:54:47;12.50;63.70
82183;DHT22;71763;52.220;13.000;2023-11-19T14:57:12;12.50;63.80
82183;DHT22;71763;52.220;13.000;2023-11-19T14:59:38;12.50;63.80
82183;DHT22;71763;52.220;13.000;2023-11-19T15:02:04;12.50;63.80
82183;DHT22;71763;52.220;13.000;2023-11-19T15:04:30;12.40;63.80
82183;DHT22;71763;52.220;13.000;2023-11-19T15:06:57;12.40;63.80
82183;DHT22;71763;52.220;13.000;2023-11-19T15:09:23;12.40;63.90
82183;DHT22;71763;52.220;13.000;2023-11-19T15:11:48;12.40;63.90
82183;DHT22;71763;52.220;13.000;2023-11-19T15:14:15;12.40;63.90
82183;DHT22;71763;52.220;13.000;2023-11-19T15:16:42;12.40;63.90
82183;DHT22;71763;52.220;13.000;2023-11-19T15:19:08;12.40;63.90
82183;DHT22;71763;52.220;13.000;2023-11-19T15:21:34;12.30;63.80
82183;DHT22;71763;52.220;13.000;2023-11-19T15:24:00;12.30;63.70
82183;DHT22;71763;52.220;13.000;2023-11-19T15:26:27;12.40;63.80
82183;DHT22;71763;52.220;13.000;2023-11-19T15:28:52;12.30;63.70
82183;DHT22;71763;52.220;13.000;2023-11-19T15:31:22;12.30;63.70
82183;DHT22;71763;52.220;13.000;2023-11-19T15:33:47;12.30;63.80
82183;DHT22;71763;52.220;13.000;2023-11-19T15:36:13;12.30;63.90
82183;DHT22;71763;52.220;13.000;2023-11-19T15:38:40;12.30;63.90
82183;DHT22;71763;52.220;13.000;2023-11-19T15:41:06;12.30;63.90
82183;DHT22;71763;52.220;13.000;2023-11-19T15:43:33;12.20;63.80